sensor_id;sensor_type;location;lat;lon;timestamp;noise_LAeq;noise_LA_min;noise_LA_max;noise_LA01;noise_LA95
77361;Laerm;66427;51.798;10.954;2023-02-22T00:01:40;46.12;26.98;61.78;;
77361;Laerm;66427;51.798;10.954;2023-02-22T00:04:10;27.57;26.89;36.37;;
77361;Laerm;66427;51.798;10.954;2023-02-22T00:06:38;27.85;27.00;36.22;;
77361;Laerm;66427;51.798;10.954;2023-02-22T00:09:04;27.86;27.04;30.49;;
77361;Laerm;66427;51.798;10.954;2023-02-22T00:11:33;27.71;27.00;32.34;;
77361;Laerm;66427;51.798;10.954;2023-02-22T00:14:17;27.76;27.04;29.14;;
77361;Laerm;66427;51.798;10.954;2023-02-22T00:16:50;51.45;27.00;67.99;;
77361;Laerm;66427;51.798;10.954;2023-02-22T00:19:17;28.29;27.08;35.04;;
77361;Laerm;66427;51.798;10.954;2023-02-22T00:21:43;27.88;27.12;29.72;;
77361;Laerm;66427;51.798;10.954;2023-02-22T00:24:10;27.98;27.14;30.69;;
77361;Laerm;66427;51.798;10.954;2023-02-22T00:26:35;27.98;27.02;30.49;;
77361;Laerm;66427;51.798;10.954;2023-02-22T00:29:06;29.07;27.57;38.89;;
77361;Laerm;66427;51.798;10.954;2023-02-22T00:31:40;28.73;27.03;38.21;;
77361;Laerm;66427;51.798;10.954;2023-02-22T00:34:13;33.28;26.99;49.24;;
77361;Laerm;66427;51.798;10.954;2023-02-22T00:36:46;28.23;27.26;30.18;;
77361;Laerm;66427;51.798;10.954;2023-02-22T00:39:14;28.26;27.39;30.99;;
77361;Laerm;66427;51.798;10.954;2023-02-22T00:41:41;27.87;27.13;29.49;;
77361;Laerm;66427;51.798;10.954;2023-02-22T00:44:10;28.65;27.03;33.77;;
77361;Laerm;66427;51.798;10.954;2023-02-22T00:46:38;28.96;27.16;39.50;;
77361;Laerm;66427;51.798;10.954;2023-02-22T00:49:04;28.18;27.20;37.30;;
77361;Laerm;66427;51.798;10.954;2023-02-22T00:51:34;29.37;27.35;46.06;;
77361;Laerm;66427;51.798;10.954;2023-02-22T00:54:02;48.02;27.12;63.48;;
77361;Laerm;66427;51.798;10.954;2023-02-22T00:56:28;28.93;27.19;36.61;;
77361;Laerm;66427;51.798;10.954;2023-02-22T00:59:02;28.24;27.08;35.14;;
77361;Laerm;66427;51.798;10.954;2023-02-22T01:01:30;28.81;27.58;32.39;;
77361;Laerm;66427;51.798;10.954;2023-02-22T01:03:56;28.54;27.32;34.21;;
77361;Laerm;66427;51.798;10.954;2023-02-22T01:06:38;29.19;27.28;37.40;;
77361;Laerm;66427;51.798;10.954;2023-02-22T01:09:04;28.24;27.04;31.70;;
77361;Laerm;66427;51.798;10.954;2023-02-22T01:11:30;28.57;27.14;40.29;;
77361;Laerm;66427;51.798;10.954;2023-02-22T01:13:55;27.84;27.06;30.95;;
77361;Laerm;66427;51.798;10.954;2023-02-22T01:16:25;28.03;27.12;30.01;;
77361;Laerm;66427;51.798;10.954;2023-02-22T01:18:57;29.33;26.99;40.50;;
77361;Laerm;66427;51.798;10.954;2023-02-22T01:21:28;27.88;26.98;31.96;;
77361;Laerm;66427;51.798;10.954;2023-02-22T01:24:01;29.02;27.05;33.98;;
77361;Laerm;66427;51.798;10.954;2023-02-22T01:26:39;27.67;27.07;29.26;;
77361;Laerm;66427;51.798;10.954;2023-02-22T01:29:04;28.85;27.04;34.55;;
77361;Laerm;66427;51.798;10.954;2023-02-22T01:31:36;28.55;27.10;31.31;;
77361;Laerm;66427;51.798;10.954;2023-02-22T01:34:03;28.35;27.09;31.82;;
77361;Laerm;66427;51.798;10.954;2023-02-22T01:36:29;27.99;27.08;30.02;;
77361;Laerm;66427;51.798;10.954;2023-02-22T01:39:06;28.82;27.27;35.70;;
77361;Laerm;66427;51.798;10.954;2023-02-22T01:41:37;28.60;26.94;32.71;;
77361;Laerm;66427;51.798;10.954;2023-02-22T01:46:56;30.35;27.88;36.75;;
77361;Laerm;66427;51.798;10.954;2023-02-22T01:49:29;29.65;27.40;34.11;;
77361;Laerm;66427;51.798;10.954;2023-02-22T01:52:02;28.47;27.17;34.08;;
77361;Laerm;66427;51.798;10.954;2023-02-22T01:54:32;29.87;27.90;33.55;;
77361;Laerm;66427;51.798;10.954;2023-02-22T01:57:07;29.98;27.40;39.75;;
77361;Laerm;66427;51.798;10.954;2023-02-22T01:59:40;30.07;27.24;37.50;;
77361;Laerm;66427;51.798;10.954;2023-02-22T02:02:08;28.41;27.17;36.27;;
77361;Laerm;66427;51.798;10.954;2023-02-22T02:04:40;27.78;26.89;35.73;;
77361;Laerm;66427;51.798;10.954;2023-02-22T02:07:09;29.90;27.30;37.15;;
77361;Laerm;66427;51.798;10.954;2023-02-22T02:12:06;28.07;27.11;31.12;;
77361;Laerm;66427;51.798;10.954;2023-02-22T02:14:42;28.55;27.20;32.24;;
77361;Laerm;66427;51.798;10.954;2023-02-22T02:17:25;35.46;27.64;48.40;;
77361;Laerm;66427;51.798;10.954;2023-02-22T02:22:34;33.88;28.88;40.71;;
77361;Laerm;66427;51.798;10.954;2023-02-22T02:25:10;30.46;27.75;35.63;;
77361;Laerm;66427;51.798;10.954;2023-02-22T02:33:05;41.05;28.19;54.39;;
77361;Laerm;66427;51.798;10.954;2023-02-22T02:38:12;40.11;32.68;45.92;;
77361;Laerm;66427;51.798;10.954;2023-02-22T02:40:44;37.56;28.40;45.08;;
77361;Laerm;66427;51.798;10.954;2023-02-22T02:43:33;41.18;32.39;48.01;;
77361;Laerm;66427;51.798;10.954;2023-02-22T02:46:10;36.64;30.21;44.13;;
77361;Laerm;66427;51.798;10.954;2023-02-22T02:48:42;35.11;29.17;42.70;;
77361;Laerm;66427;51.798;10.954;2023-02-22T02:51:10;38.32;28.78;48.06;;
77361;Laerm;66427;51.798;10.954;2023-02-22T02:53:41;32.96;28.64;45.03;;
77361;Laerm;66427;51.798;10.954;2023-02-22T02:56:11;34.68;28.26;43.99;;
77361;Laerm;66427;51.798;10.954;2023-02-22T02:58:48;31.08;27.97;38.38;;
77361;Laerm;66427;51.798;10.954;2023-02-22T03:01:18;33.21;28.73;39.82;;
77361;Laerm;66427;51.798;10.954;2023-02-22T03:11:41;32.73;29.63;42.30;;
77361;Laerm;66427;51.798;10.954;2023-02-22T03:14:10;33.68;29.34;47.69;;
77361;Laerm;66427;51.798;10.954;2023-02-22T03:16:48;33.64;30.30;42.81;;
77361;Laerm;66427;51.798;10.954;2023-02-22T03:24:38;36.51;31.02;43.50;;
77361;Laerm;66427;51.798;10.954;2023-02-22T03:29:36;36.09;31.54;53.97;;
77361;Laerm;66427;51.798;10.954;2023-02-22T03:32:05;37.02;31.50;52.79;;
77361;Laerm;66427;51.798;10.954;2023-02-22T03:34:47;35.99;32.35;46.14;;
77361;Laerm;66427;51.798;10.954;2023-02-22T03:37:22;37.49;33.17;46.83;;
77361;Laerm;66427;51.798;10.954;2023-02-22T03:39:50;38.18;32.86;59.31;;
77361;Laerm;66427;51.798;10.954;2023-02-22T03:42:27;38.08;33.39;51.44;;
77361;Laerm;66427;51.798;10.954;2023-02-22T03:45:01;40.30;34.45;46.06;;
77361;Laerm;66427;51.798;10.954;2023-02-22T03:47:36;40.69;37.71;45.65;;
77361;Laerm;66427;51.798;10.954;2023-02-22T03:50:14;41.85;37.67;63.17;;
77361;Laerm;66427;51.798;10.954;2023-02-22T03:52:48;40.33;36.41;46.64;;
77361;Laerm;66427;51.798;10.954;2023-02-22T03:55:16;40.26;36.37;48.31;;
77361;Laerm;66427;51.798;10.954;2023-02-22T03:57:52;41.04;36.76;45.45;;
77361;Laerm;66427;51.798;10.954;2023-02-22T04:00:21;39.61;35.41;55.40;;
77361;Laerm;66427;51.798;10.954;2023-02-22T04:02:47;41.93;34.66;49.87;;
77361;Laerm;66427;51.798;10.954;2023-02-22T04:05:13;38.34;33.74;49.01;;
77361;Laerm;66427;51.798;10.954;2023-02-22T04:07:39;37.93;34.36;52.43;;
77361;Laerm;66427;51.798;10.954;2023-02-22T04:10:05;40.00;34.15;63.75;;
77361;Laerm;66427;51.798;10.954;2023-02-22T04:12:31;42.85;33.48;57.71;;
77361;Laerm;66427;51.798;10.954;2023-02-22T04:15:02;44.96;33.75;60.45;;
77361;Laerm;66427;51.798;10.954;2023-02-22T04:17:31;46.47;33.15;59.53;;
77361;Laerm;66427;51.798;10.954;2023-02-22T04:19:57;48.26;35.71;61.94;;
77361;Laerm;66427;51.798;10.954;2023-02-22T04:22:23;46.85;35.17;60.59;;
77361;Laerm;66427;51.798;10.954;2023-02-22T04:24:49;45.21;34.45;58.91;;
77361;Laerm;66427;51.798;10.954;2023-02-22T04:27:16;53.34;34.25;65.72;;
77361;Laerm;66427;51.798;10.954;2023-02-22T04:29:42;50.32;38.17;62.95;;
77361;Laerm;66427;51.798;10.954;2023-02-22T04:32:11;46.83;35.55;59.15;;
77361;Laerm;66427;51.798;10.954;2023-02-22T04:34:39;43.24;35.05;57.50;;
77361;Laerm;66427;51.798;10.954;2023-02-22T04:37:05;40.49;36.53;46.16;;
77361;Laerm;66427;51.798;10.954;2023-02-22T04:39:34;40.14;35.07;47.64;;
77361;Laerm;66427;51.798;10.954;2023-02-22T04:42:07;47.43;36.04;59.14;;
77361;Laerm;66427;51.798;10.954;2023-02-22T04:44:35;44.65;35.30;57.22;;
77361;Laerm;66427;51.798;10.954;2023-02-22T04:47:01;49.85;36.34;63.72;;
77361;Laerm;66427;51.798;10.954;2023-02-22T04:49:30;48.01;35.34;63.96;;
77361;Laerm;66427;51.798;10.954;2023-02-22T04:51:58;50.89;34.59;67.44;;
77361;Laerm;66427;51.798;10.954;2023-02-22T04:54:24;51.20;33.96;65.70;;
77361;Laerm;66427;51.798;10.954;2023-02-22T04:56:50;39.15;32.55;52.16;;
77361;Laerm;66427;51.798;10.954;2023-02-22T04:59:16;48.41;32.32;65.88;;
77361;Laerm;66427;51.798;10.954;2023-02-22T05:01:42;48.19;33.99;61.82;;
77361;Laerm;66427;51.798;10.954;2023-02-22T05:04:12;50.85;34.95;65.14;;
77361;Laerm;66427;51.798;10.954;2023-02-22T05:06:45;40.02;35.38;59.23;;
77361;Laerm;66427;51.798;10.954;2023-02-22T05:09:18;38.91;34.53;47.60;;
77361;Laerm;66427;51.798;10.954;2023-02-22T05:11:46;49.49;35.44;66.02;;
77361;Laerm;66427;51.798;10.954;2023-02-22T05:14:11;52.57;35.11;69.18;;
77361;Laerm;66427;51.798;10.954;2023-02-22T05:16:41;46.40;35.38;61.52;;
77361;Laerm;66427;51.798;10.954;2023-02-22T05:19:09;39.50;35.51;46.74;;
77361;Laerm;66427;51.798;10.954;2023-02-22T05:21:35;48.30;37.28;63.18;;
77361;Laerm;66427;51.798;10.954;2023-02-22T05:24:01;41.18;38.00;47.57;;
77361;Laerm;66427;51.798;10.954;2023-02-22T05:26:27;54.95;38.11;71.59;;
77361;Laerm;66427;51.798;10.954;2023-02-22T05:28:53;51.37;37.35;62.89;;
77361;Laerm;66427;51.798;10.954;2023-02-22T05:31:19;54.21;38.38;69.95;;
77361;Laerm;66427;51.798;10.954;2023-02-22T05:33:45;53.50;38.45;68.87;;
77361;Laerm;66427;51.798;10.954;2023-02-22T05:36:11;51.37;38.34;68.25;;
77361;Laerm;66427;51.798;10.954;2023-02-22T05:38:37;45.86;38.62;62.63;;
77361;Laerm;66427;51.798;10.954;2023-02-22T05:41:07;55.54;42.97;68.49;;
77361;Laerm;66427;51.798;10.954;2023-02-22T05:43:36;53.30;43.71;67.89;;
77361;Laerm;66427;51.798;10.954;2023-02-22T05:46:02;52.47;45.49;64.08;;
77361;Laerm;66427;51.798;10.954;2023-02-22T05:48:28;53.37;46.35;66.11;;
77361;Laerm;66427;51.798;10.954;2023-02-22T05:50:54;50.98;46.41;63.94;;
77361;Laerm;66427;51.798;10.954;2023-02-22T05:53:19;56.10;45.88;65.32;;
77361;Laerm;66427;51.798;10.954;2023-02-22T05:55:45;59.73;44.36;73.65;;
77361;Laerm;66427;51.798;10.954;2023-02-22T05:58:16;55.30;46.93;70.43;;
77361;Laerm;66427;51.798;10.954;2023-02-22T06:00:43;59.45;47.31;74.59;;
77361;Laerm;66427;51.798;10.954;2023-02-22T06:03:09;53.81;46.17;65.62;;
77361;Laerm;66427;51.798;10.954;2023-02-22T06:05:36;56.93;43.22;72.76;;
77361;Laerm;66427;51.798;10.954;2023-02-22T06:08:02;55.49;44.72;69.37;;
77361;Laerm;66427;51.798;10.954;2023-02-22T06:10:32;52.25;42.95;66.65;;
77361;Laerm;66427;51.798;10.954;2023-02-22T06:13:01;51.65;44.16;64.31;;
77361;Laerm;66427;51.798;10.954;2023-02-22T06:15:27;57.79;46.09;69.55;;
77361;Laerm;66427;51.798;10.954;2023-02-22T06:17:58;50.89;43.59;64.84;;
77361;Laerm;66427;51.798;10.954;2023-02-22T06:20:28;54.40;43.45;66.92;;
77361;Laerm;66427;51.798;10.954;2023-02-22T06:22:54;60.35;43.39;74.31;;
77361;Laerm;66427;51.798;10.954;2023-02-22T06:25:24;55.28;42.43;64.92;;
77361;Laerm;66427;51.798;10.954;2023-02-22T06:27:53;58.41;43.54;68.75;;
77361;Laerm;66427;51.798;10.954;2023-02-22T06:32:45;59.63;44.73;76.66;;
77361;Laerm;66427;51.798;10.954;2023-02-22T06:35:10;59.45;45.83;71.65;;
77361;Laerm;66427;51.798;10.954;2023-02-22T06:37:40;58.30;41.94;68.74;;
77361;Laerm;66427;51.798;10.954;2023-02-22T06:40:09;55.93;40.52;69.88;;
77361;Laerm;66427;51.798;10.954;2023-02-22T06:42:35;58.07;41.65;71.14;;
77361;Laerm;66427;51.798;10.954;2023-02-22T06:45:00;53.55;41.25;64.21;;
77361;Laerm;66427;51.798;10.954;2023-02-22T06:47:26;55.25;40.16;67.53;;
77361;Laerm;66427;51.798;10.954;2023-02-22T06:49:52;53.88;38.95;67.45;;
77361;Laerm;66427;51.798;10.954;2023-02-22T06:52:18;56.10;43.23;69.81;;
77361;Laerm;66427;51.798;10.954;2023-02-22T06:54:44;51.67;40.92;64.91;;
77361;Laerm;66427;51.798;10.954;2023-02-22T06:57:10;56.32;42.05;68.39;;
77361;Laerm;66427;51.798;10.954;2023-02-22T06:59:38;56.68;39.53;69.07;;
77361;Laerm;66427;51.798;10.954;2023-02-22T07:02:06;54.45;40.56;67.33;;
77361;Laerm;66427;51.798;10.954;2023-02-22T07:04:32;53.97;41.10;65.97;;
77361;Laerm;66427;51.798;10.954;2023-02-22T07:07:02;52.65;42.26;64.43;;
77361;Laerm;66427;51.798;10.954;2023-02-22T07:09:29;56.72;41.41;68.72;;
77361;Laerm;66427;51.798;10.954;2023-02-22T07:11:55;51.58;38.37;66.82;;
77361;Laerm;66427;51.798;10.954;2023-02-22T07:14:25;53.49;41.73;66.53;;
77361;Laerm;66427;51.798;10.954;2023-02-22T07:16:53;44.08;40.03;54.65;;
77361;Laerm;66427;51.798;10.954;2023-02-22T07:19:19;52.60;40.09;65.56;;
77361;Laerm;66427;51.798;10.954;2023-02-22T07:21:45;54.39;42.10;66.54;;
77361;Laerm;66427;51.798;10.954;2023-02-22T07:24:11;50.90;41.45;64.37;;
77361;Laerm;66427;51.798;10.954;2023-02-22T07:26:40;55.91;40.98;69.06;;
77361;Laerm;66427;51.798;10.954;2023-02-22T07:29:08;54.16;40.02;65.51;;
77361;Laerm;66427;51.798;10.954;2023-02-22T07:31:35;54.82;42.72;65.56;;
77361;Laerm;66427;51.798;10.954;2023-02-22T07:34:06;56.11;39.99;69.14;;
77361;Laerm;66427;51.798;10.954;2023-02-22T07:36:33;52.79;39.97;65.97;;
77361;Laerm;66427;51.798;10.954;2023-02-22T07:38:59;42.14;39.82;50.45;;
77361;Laerm;66427;51.798;10.954;2023-02-22T07:41:25;51.52;39.28;65.77;;
77361;Laerm;66427;51.798;10.954;2023-02-22T07:43:51;52.37;38.04;70.82;;
77361;Laerm;66427;51.798;10.954;2023-02-22T07:46:17;50.47;38.40;71.70;;
77361;Laerm;66427;51.798;10.954;2023-02-22T07:48:43;56.21;37.51;71.03;;
77361;Laerm;66427;51.798;10.954;2023-02-22T07:51:16;52.61;37.51;66.33;;
77361;Laerm;66427;51.798;10.954;2023-02-22T07:53:44;56.47;39.21;72.63;;
77361;Laerm;66427;51.798;10.954;2023-02-22T07:56:09;56.81;41.71;70.81;;
77361;Laerm;66427;51.798;10.954;2023-02-22T07:58:39;55.54;41.23;66.41;;
77361;Laerm;66427;51.798;10.954;2023-02-22T08:01:07;47.06;36.96;62.67;;
77361;Laerm;66427;51.798;10.954;2023-02-22T08:03:33;51.70;37.61;63.19;;
77361;Laerm;66427;51.798;10.954;2023-02-22T08:05:59;52.41;37.20;65.80;;
77361;Laerm;66427;51.798;10.954;2023-02-22T08:08:26;51.17;37.60;61.52;;
77361;Laerm;66427;51.798;10.954;2023-02-22T08:10:51;57.40;38.83;67.88;;
77361;Laerm;66427;51.798;10.954;2023-02-22T08:13:18;54.43;39.54;68.02;;
77361;Laerm;66427;51.798;10.954;2023-02-22T08:15:49;50.69;38.31;65.99;;
77361;Laerm;66427;51.798;10.954;2023-02-22T08:18:17;52.63;38.12;68.73;;
77361;Laerm;66427;51.798;10.954;2023-02-22T08:20:44;56.24;39.60;66.87;;
77361;Laerm;66427;51.798;10.954;2023-02-22T08:23:15;49.00;38.80;63.32;;
77361;Laerm;66427;51.798;10.954;2023-02-22T08:25:43;60.03;42.40;74.35;;
77361;Laerm;66427;51.798;10.954;2023-02-22T08:28:10;54.84;41.02;64.68;;
77361;Laerm;66427;51.798;10.954;2023-02-22T08:30:41;57.17;39.98;66.80;;
77361;Laerm;66427;51.798;10.954;2023-02-22T08:33:10;62.59;40.78;76.49;;
77361;Laerm;66427;51.798;10.954;2023-02-22T08:35:36;58.24;39.69;71.34;;
77361;Laerm;66427;51.798;10.954;2023-02-22T08:38:03;57.01;46.33;68.36;;
77361;Laerm;66427;51.798;10.954;2023-02-22T08:40:30;56.60;40.52;73.31;;
77361;Laerm;66427;51.798;10.954;2023-02-22T08:43:02;61.25;41.14;78.57;;
77361;Laerm;66427;51.798;10.954;2023-02-22T08:45:30;53.35;39.98;72.18;;
77361;Laerm;66427;51.798;10.954;2023-02-22T08:47:56;55.70;40.47;67.60;;
77361;Laerm;66427;51.798;10.954;2023-02-22T08:50:29;57.22;40.22;73.56;;
77361;Laerm;66427;51.798;10.954;2023-02-22T08:53:01;53.21;39.94;64.98;;
77361;Laerm;66427;51.798;10.954;2023-02-22T08:55:31;52.00;38.91;65.14;;
77361;Laerm;66427;51.798;10.954;2023-02-22T08:57:58;47.63;38.18;61.11;;
77361;Laerm;66427;51.798;10.954;2023-02-22T09:00:26;62.89;41.28;78.39;;
77361;Laerm;66427;51.798;10.954;2023-02-22T09:02:52;51.90;37.68;63.55;;
77361;Laerm;66427;51.798;10.954;2023-02-22T09:05:24;56.02;39.69;68.36;;
77361;Laerm;66427;51.798;10.954;2023-02-22T09:07:52;53.52;39.17;66.03;;
77361;Laerm;66427;51.798;10.954;2023-02-22T09:10:20;55.69;38.36;69.48;;
77361;Laerm;66427;51.798;10.954;2023-02-22T09:12:50;50.33;38.19;64.26;;
77361;Laerm;66427;51.798;10.954;2023-02-22T09:15:23;57.96;40.66;70.98;;
77361;Laerm;66427;51.798;10.954;2023-02-22T09:17:52;55.75;40.73;67.82;;
77361;Laerm;66427;51.798;10.954;2023-02-22T09:20:18;54.32;38.67;64.90;;
77361;Laerm;66427;51.798;10.954;2023-02-22T09:22:45;61.39;38.34;78.58;;
77361;Laerm;66427;51.798;10.954;2023-02-22T09:25:11;52.54;39.00;69.47;;
77361;Laerm;66427;51.798;10.954;2023-02-22T09:27:37;52.21;38.88;67.27;;
77361;Laerm;66427;51.798;10.954;2023-02-22T09:30:03;55.72;40.77;68.94;;
77361;Laerm;66427;51.798;10.954;2023-02-22T09:32:29;54.94;38.91;67.23;;
77361;Laerm;66427;51.798;10.954;2023-02-22T09:34:59;57.90;39.26;73.06;;
77361;Laerm;66427;51.798;10.954;2023-02-22T09:37:27;61.75;40.27;75.79;;
77361;Laerm;66427;51.798;10.954;2023-02-22T09:39:53;58.84;38.81;75.09;;
77361;Laerm;66427;51.798;10.954;2023-02-22T09:42:30;54.34;40.63;65.45;;
77361;Laerm;66427;51.798;10.954;2023-02-22T09:47:39;52.21;38.25;65.00;;
77361;Laerm;66427;51.798;10.954;2023-02-22T09:50:10;52.11;37.63;66.61;;
77361;Laerm;66427;51.798;10.954;2023-02-22T09:52:42;53.75;38.89;66.92;;
77361;Laerm;66427;51.798;10.954;2023-02-22T09:57:45;62.91;43.10;78.36;;
77361;Laerm;66427;51.798;10.954;2023-02-22T10:00:18;54.97;40.09;66.32;;
77361;Laerm;66427;51.798;10.954;2023-02-22T10:05:18;54.22;40.58;65.24;;
77361;Laerm;66427;51.798;10.954;2023-02-22T10:07:52;54.89;40.80;66.31;;
77361;Laerm;66427;51.798;10.954;2023-02-22T10:10:22;52.25;40.75;64.79;;
77361;Laerm;66427;51.798;10.954;2023-02-22T10:12:55;57.17;40.91;68.16;;
77361;Laerm;66427;51.798;10.954;2023-02-22T10:24:06;59.12;41.51;73.22;;
77361;Laerm;66427;51.798;10.954;2023-02-22T10:26:40;54.08;39.24;70.51;;
77361;Laerm;66427;51.798;10.954;2023-02-22T10:29:16;54.38;39.87;69.40;;
77361;Laerm;66427;51.798;10.954;2023-02-22T10:31:45;50.31;39.53;62.12;;
77361;Laerm;66427;51.798;10.954;2023-02-22T10:34:14;60.31;41.95;75.35;;
77361;Laerm;66427;51.798;10.954;2023-02-22T10:36:42;57.25;40.06;71.78;;
77361;Laerm;66427;51.798;10.954;2023-02-22T10:41:43;54.49;37.59;71.48;;
77361;Laerm;66427;51.798;10.954;2023-02-22T10:44:12;54.33;39.38;65.02;;
77361;Laerm;66427;51.798;10.954;2023-02-22T10:46:41;57.95;39.04;70.70;;
77361;Laerm;66427;51.798;10.954;2023-02-22T10:49:10;59.44;39.65;76.50;;
77361;Laerm;66427;51.798;10.954;2023-02-22T10:51:40;57.34;40.88;76.57;;
77361;Laerm;66427;51.798;10.954;2023-02-22T10:54:13;55.63;36.13;73.64;;
77361;Laerm;66427;51.798;10.954;2023-02-22T10:56:47;50.33;37.19;64.08;;
77361;Laerm;66427;51.798;10.954;2023-02-22T11:02:28;54.02;37.38;63.81;;
77361;Laerm;66427;51.798;10.954;2023-02-22T11:04:56;54.33;37.59;70.35;;
77361;Laerm;66427;51.798;10.954;2023-02-22T11:12:27;53.39;37.29;67.44;;
77361;Laerm;66427;51.798;10.954;2023-02-22T11:14:56;54.58;37.71;65.92;;
77361;Laerm;66427;51.798;10.954;2023-02-22T11:17:28;53.38;37.32;64.53;;
77361;Laerm;66427;51.798;10.954;2023-02-22T11:19:54;58.30;37.96;74.16;;
77361;Laerm;66427;51.798;10.954;2023-02-22T11:22:24;53.79;35.41;68.73;;
77361;Laerm;66427;51.798;10.954;2023-02-22T11:24:52;50.46;37.04;65.49;;
77361;Laerm;66427;51.798;10.954;2023-02-22T11:27:20;59.86;38.67;75.29;;
77361;Laerm;66427;51.798;10.954;2023-02-22T11:29:48;50.45;37.40;67.96;;
77361;Laerm;66427;51.798;10.954;2023-02-22T11:32:16;53.77;37.75;66.55;;
77361;Laerm;66427;51.798;10.954;2023-02-22T11:34:43;56.61;38.89;68.95;;
77361;Laerm;66427;51.798;10.954;2023-02-22T11:40:00;53.37;36.80;68.61;;
77361;Laerm;66427;51.798;10.954;2023-02-22T11:42:29;58.16;36.08;75.53;;
77361;Laerm;66427;51.798;10.954;2023-02-22T11:50:16;54.37;36.15;64.61;;
77361;Laerm;66427;51.798;10.954;2023-02-22T11:52:53;53.93;36.83;66.56;;
77361;Laerm;66427;51.798;10.954;2023-02-22T11:55:22;55.09;37.29;65.00;;
77361;Laerm;66427;51.798;10.954;2023-02-22T11:58:20;56.48;35.41;74.43;;
77361;Laerm;66427;51.798;10.954;2023-02-22T12:13:36;51.60;37.67;68.87;;
77361;Laerm;66427;51.798;10.954;2023-02-22T12:16:08;58.02;39.63;68.90;;
77361;Laerm;66427;51.798;10.954;2023-02-22T12:18:58;55.17;38.87;69.19;;
77361;Laerm;66427;51.798;10.954;2023-02-22T12:21:32;54.15;39.59;66.41;;
77361;Laerm;66427;51.798;10.954;2023-02-22T12:24:04;56.73;39.93;72.84;;
77361;Laerm;66427;51.798;10.954;2023-02-22T12:26:38;52.99;38.38;68.73;;
77361;Laerm;66427;51.798;10.954;2023-02-22T12:29:11;48.63;38.78;67.99;;
77361;Laerm;66427;51.798;10.954;2023-02-22T12:31:41;46.22;38.60;67.75;;
77361;Laerm;66427;51.798;10.954;2023-02-22T12:36:49;53.65;37.99;63.87;;
77361;Laerm;66427;51.798;10.954;2023-02-22T12:39:22;58.22;43.81;72.74;;
77361;Laerm;66427;51.798;10.954;2023-02-22T12:41:54;52.36;38.20;66.59;;
77361;Laerm;66427;51.798;10.954;2023-02-22T12:44:29;61.61;39.07;76.70;;
77361;Laerm;66427;51.798;10.954;2023-02-22T12:46:59;55.50;39.86;66.27;;
77361;Laerm;66427;51.798;10.954;2023-02-22T12:49:29;54.16;39.27;67.20;;
77361;Laerm;66427;51.798;10.954;2023-02-22T12:51:57;56.97;38.88;73.43;;
77361;Laerm;66427;51.798;10.954;2023-02-22T12:59:55;53.85;35.64;68.72;;
77361;Laerm;66427;51.798;10.954;2023-02-22T13:02:28;51.55;35.96;64.30;;
77361;Laerm;66427;51.798;10.954;2023-02-22T13:04:57;55.35;37.45;67.58;;
77361;Laerm;66427;51.798;10.954;2023-02-22T13:07:30;54.56;36.05;67.55;;
77361;Laerm;66427;51.798;10.954;2023-02-22T13:12:41;54.28;38.08;68.14;;
77361;Laerm;66427;51.798;10.954;2023-02-22T13:15:27;51.13;37.73;64.74;;
77361;Laerm;66427;51.798;10.954;2023-02-22T13:17:56;52.98;37.87;68.01;;
77361;Laerm;66427;51.798;10.954;2023-02-22T13:20:34;55.76;37.72;68.04;;
77361;Laerm;66427;51.798;10.954;2023-02-22T13:25:54;48.81;37.31;64.53;;
77361;Laerm;66427;51.798;10.954;2023-02-22T13:38:49;54.01;40.72;64.99;;
77361;Laerm;66427;51.798;10.954;2023-02-22T13:44:21;56.10;38.86;68.85;;
77361;Laerm;66427;51.798;10.954;2023-02-22T13:47:09;50.19;36.22;64.85;;
77361;Laerm;66427;51.798;10.954;2023-02-22T13:52:28;56.21;39.38;67.47;;
77361;Laerm;66427;51.798;10.954;2023-02-22T13:55:00;42.39;37.53;54.36;;
77361;Laerm;66427;51.798;10.954;2023-02-22T13:57:28;56.59;38.75;69.50;;
77361;Laerm;66427;51.798;10.954;2023-02-22T14:00:17;54.13;36.54;65.16;;
77361;Laerm;66427;51.798;10.954;2023-02-22T14:08:05;55.44;38.99;68.04;;
77361;Laerm;66427;51.798;10.954;2023-02-22T14:13:10;54.37;38.25;67.05;;
77361;Laerm;66427;51.798;10.954;2023-02-22T14:16:14;55.27;39.06;67.60;;
77361;Laerm;66427;51.798;10.954;2023-02-22T14:18:22;56.65;43.26;69.17;;
77361;Laerm;66427;51.798;10.954;2023-02-22T14:26:09;57.31;41.04;68.82;;
77361;Laerm;66427;51.798;10.954;2023-02-22T14:31:13;55.33;40.13;65.92;;
77361;Laerm;66427;51.798;10.954;2023-02-22T14:34:01;58.32;39.29;73.96;;
77361;Laerm;66427;51.798;10.954;2023-02-22T14:39:24;61.25;40.83;78.80;;
77361;Laerm;66427;51.798;10.954;2023-02-22T14:41:51;54.54;40.81;66.92;;
77361;Laerm;66427;51.798;10.954;2023-02-22T14:44:25;57.36;39.41;76.91;;
77361;Laerm;66427;51.798;10.954;2023-02-22T14:47:01;54.57;40.28;64.84;;
77361;Laerm;66427;51.798;10.954;2023-02-22T14:49:37;55.18;38.95;67.82;;
77361;Laerm;66427;51.798;10.954;2023-02-22T14:52:05;59.76;40.27;78.57;;
77361;Laerm;66427;51.798;10.954;2023-02-22T14:54:38;55.93;40.89;64.34;;
77361;Laerm;66427;51.798;10.954;2023-02-22T14:57:19;56.18;39.80;68.96;;
77361;Laerm;66427;51.798;10.954;2023-02-22T15:00:04;57.11;39.43;67.58;;
77361;Laerm;66427;51.798;10.954;2023-02-22T15:02:37;55.59;38.52;66.53;;
77361;Laerm;66427;51.798;10.954;2023-02-22T15:05:04;57.21;40.40;68.76;;
77361;Laerm;66427;51.798;10.954;2023-02-22T15:07:33;58.39;43.21;71.43;;
77361;Laerm;66427;51.798;10.954;2023-02-22T15:12:38;59.24;39.70;72.29;;
77361;Laerm;66427;51.798;10.954;2023-02-22T15:15:17;57.70;40.05;70.14;;
77361;Laerm;66427;51.798;10.954;2023-02-22T15:17:43;59.99;40.69;75.32;;
77361;Laerm;66427;51.798;10.954;2023-02-22T15:20:14;58.75;44.34;67.44;;
77361;Laerm;66427;51.798;10.954;2023-02-22T15:22:48;55.38;39.92;66.04;;
77361;Laerm;66427;51.798;10.954;2023-02-22T15:25:17;57.74;40.90;67.71;;
77361;Laerm;66427;51.798;10.954;2023-02-22T15:27:47;56.53;42.46;70.55;;
77361;Laerm;66427;51.798;10.954;2023-02-22T15:30:21;52.40;39.76;66.74;;
77361;Laerm;66427;51.798;10.954;2023-02-22T15:32:51;60.93;41.23;77.60;;
77361;Laerm;66427;51.798;10.954;2023-02-22T15:37:44;54.29;38.30;65.92;;
77361;Laerm;66427;51.798;10.954;2023-02-22T15:40:17;50.79;38.19;64.66;;
77361;Laerm;66427;51.798;10.954;2023-02-22T15:42:52;55.48;41.21;66.31;;
77361;Laerm;66427;51.798;10.954;2023-02-22T15:45:20;60.34;43.03;74.53;;
77361;Laerm;66427;51.798;10.954;2023-02-22T15:47:51;56.94;41.46;67.00;;
77361;Laerm;66427;51.798;10.954;2023-02-22T15:50:24;58.29;43.27;67.81;;
77361;Laerm;66427;51.798;10.954;2023-02-22T15:52:57;60.90;54.58;69.93;;
77361;Laerm;66427;51.798;10.954;2023-02-22T15:55:25;58.14;42.65;70.96;;
77361;Laerm;66427;51.798;10.954;2023-02-22T15:57:58;51.44;39.37;64.32;;
77361;Laerm;66427;51.798;10.954;2023-02-22T16:00:32;56.32;42.55;64.28;;
77361;Laerm;66427;51.798;10.954;2023-02-22T16:03:02;54.24;39.68;65.00;;